Time;durP1;ratioP1;P1;durP2;ratioP2;P2;SDS_P1;SDS_P2;PMS_P1;PMS_P2;Temp;Humidity;BMP_temperature;BMP_pressure;BME280_temperature;BME280_humidity;BME280_pressure;Samples;Min_cycle;Max_cycle;Signal;HPM_P1;HPM_P2
2021/01/03 00:01:04;;;;;;;9.15;6.90;;;19.00;50.70;;;;;;5211818;28;20079;-78
2021/01/03 00:03:34;;;;;;;8.60;6.90;;;19.00;50.60;;;;;;5194370;28;20407;-78
2021/01/03 00:06:05;;;;;;;8.50;6.40;;;19.00;50.70;;;;;;5236751;28;20052;-79
2021/01/03 00:08:36;;;;;;;11.38;6.22;;;19.00;50.80;;;;;;5214393;28;20116;-79
2021/01/03 00:11:06;;;;;;;9.75;6.90;;;18.90;50.80;;;;;;5215186;28;20406;-78
2021/01/03 00:13:37;;;;;;;9.15;6.93;;;18.90;50.60;;;;;;5247026;28;20044;-78
2021/01/03 00:16:07;;;;;;;9.52;7.28;;;18.90;50.90;;;;;;5220469;28;20415;-79
2021/01/03 00:18:38;;;;;;;10.50;7.25;;;18.90;50.70;;;;;;5193716;28;20037;-79
2021/01/03 00:21:10;;;;;;;7.55;5.97;;;18.90;50.70;;;;;;5194810;28;20407;-79
2021/01/03 00:23:40;;;;;;;9.20;6.20;;;18.90;51.00;;;;;;5232250;28;20486;-78
2021/01/03 00:26:11;;;;;;;8.75;6.60;;;18.90;51.00;;;;;;5214649;28;20023;-78
2021/01/03 00:28:41;;;;;;;7.32;6.00;;;18.90;51.20;;;;;;5245903;28;20028;-78
2021/01/03 00:31:12;;;;;;;7.55;6.10;;;18.90;51.10;;;;;;5227792;28;20143;-79
2021/01/03 00:33:42;;;;;;;12.70;6.40;;;18.80;51.40;;;;;;5237807;28;20100;-78
2021/01/03 00:36:13;;;;;;;7.85;6.05;;;18.90;51.40;;;;;;5198289;28;20434;-78
2021/01/03 00:38:43;;;;;;;9.90;6.32;;;18.90;51.40;;;;;;5229859;28;20126;-78
2021/01/03 00:41:15;;;;;;;10.23;6.72;;;18.90;51.30;;;;;;5237571;28;20044;-78
2021/01/03 00:43:45;;;;;;;9.75;7.03;;;18.90;51.20;;;;;;5231641;23;20044;-78
2021/01/03 00:46:16;;;;;;;9.90;6.70;;;19.00;51.10;;;;;;5226977;28;20047;-79
2021/01/03 00:48:46;;;;;;;11.18;6.63;;;19.00;51.20;;;;;;5224792;28;20033;-78
2021/01/03 00:51:17;;;;;;;10.52;6.07;;;19.00;51.20;;;;;;5220228;28;20566;-78
2021/01/03 00:53:47;;;;;;;8.68;6.13;;;19.00;51.30;;;;;;5210425;28;20100;-79
2021/01/03 00:56:18;;;;;;;8.77;6.38;;;19.00;51.50;;;;;;5225184;28;20066;-78
2021/01/03 00:58:48;;;;;;;7.80;6.45;;;19.00;51.30;;;;;;5228312;28;20025;-77
2021/01/03 01:01:19;;;;;;;12.68;5.70;;;19.00;51.10;;;;;;5225085;28;20036;-78
2021/01/03 01:03:50;;;;;;;9.93;5.65;;;19.00;51.20;;;;;;5245281;28;20038;-77
2021/01/03 01:06:20;;;;;;;11.88;6.13;;;19.00;51.00;;;;;;5227921;28;20020;-78
2021/01/03 01:08:51;;;;;;;10.00;6.03;;;19.00;51.00;;;;;;5245779;28;20597;-79
2021/01/03 01:11:23;;;;;;;6.95;5.28;;;19.00;51.00;;;;;;5243942;28;20111;-78
2021/01/03 01:13:54;;;;;;;9.88;5.80;;;19.10;50.90;;;;;;5228646;28;20017;-78
2021/01/03 01:16:24;;;;;;;7.97;6.05;;;19.10;50.80;;;;;;5243759;28;20031;-78
2021/01/03 01:18:54;;;;;;;13.23;5.47;;;19.10;50.90;;;;;;5211664;28;20024;-78
2021/01/03 01:21:25;;;;;;;9.38;5.90;;;19.10;50.90;;;;;;5227809;28;20479;-79
2021/01/03 01:23:55;;;;;;;8.32;5.50;;;19.10;51.20;;;;;;5227899;28;20035;-77
2021/01/03 01:26:26;;;;;;;8.27;6.00;;;19.00;51.20;;;;;;5244786;28;20028;-78
2021/01/03 01:28:56;;;;;;;6.80;5.15;;;19.00;51.10;;;;;;5240977;28;20028;-77
2021/01/03 01:31:27;;;;;;;8.75;5.85;;;19.00;51.20;;;;;;5231702;28;20037;-77
2021/01/03 01:33:57;;;;;;;8.35;5.25;;;19.00;51.30;;;;;;5207666;28;20021;-77
2021/01/03 01:36:28;;;;;;;8.63;5.70;;;19.00;51.40;;;;;;5221242;28;20041;-77
2021/01/03 01:38:58;;;;;;;7.20;5.20;;;19.00;51.10;;;;;;5245229;28;20441;-77
2021/01/03 01:41:29;;;;;;;7.32;5.28;;;19.00;51.40;;;;;;5227219;28;20111;-77
2021/01/03 01:43:59;;;;;;;7.05;5.78;;;19.00;51.60;;;;;;5232835;28;20036;-77
2021/01/03 01:46:44;;;;;;;8.23;5.38;;;19.00;51.20;;;;;;5224417;28;20025;-78
2021/01/03 01:49:15;;;;;;;8.47;6.13;;;19.00;51.40;;;;;;5225899;28;20071;-78
2021/01/03 01:51:49;;;;;;;7.25;5.55;;;19.00;51.30;;;;;;5223491;28;20375;-77
2021/01/03 01:54:26;;;;;;;7.95;6.25;;;19.00;51.20;;;;;;5225754;28;20036;-78
2021/01/03 01:57:20;;;;;;;8.20;6.28;;;18.90;51.30;;;;;;5201814;28;20556;-78
2021/01/03 02:00:09;;;;;;;8.80;5.88;;;19.00;51.40;;;;;;5219585;28;20033;-79
2021/01/03 02:02:54;;;;;;;7.55;5.30;;;19.00;51.40;;;;;;5224522;28;20564;-77
2021/01/03 02:05:37;;;;;;;8.55;5.82;;;19.00;51.50;;;;;;5224773;28;20555;-79
2021/01/03 02:08:43;;;;;;;10.88;6.03;;;19.00;51.60;;;;;;5221202;28;20033;-78
2021/01/03 02:11:21;;;;;;;7.63;6.22;;;19.00;51.50;;;;;;5196866;28;20116;-78
2021/01/03 02:13:53;;;;;;;9.30;6.57;;;19.00;51.40;;;;;;5219684;28;20171;-78
2021/01/03 02:16:29;;;;;;;7.82;6.00;;;19.00;51.20;;;;;;5222416;28;20033;-78
2021/01/03 02:18:59;;;;;;;9.27;6.38;;;19.00;51.30;;;;;;5223347;28;20136;-78
2021/01/03 02:21:52;;;;;;;10.48;6.63;;;19.00;51.40;;;;;;5222606;28;20116;-77
2021/01/03 02:24:45;;;;;;;13.43;7.93;;;19.00;51.30;;;;;;5218951;28;20041;-77
2021/01/03 02:27:26;;;;;;;10.48;7.63;;;19.00;51.00;;;;;;5211160;28;20116;-78
2021/01/03 02:29:57;;;;;;;9.32;7.07;;;19.00;51.00;;;;;;5207046;28;20032;-77
2021/01/03 02:32:27;;;;;;;8.55;6.70;;;19.00;51.20;;;;;;5204365;28;20033;-77
2021/01/03 02:34:58;;;;;;;9.25;6.55;;;19.00;51.00;;;;;;5189598;28;20047;-78
2021/01/03 02:37:34;;;;;;;11.60;7.13;;;19.00;51.00;;;;;;5206070;28;20055;-77
2021/01/03 02:40:14;;;;;;;7.10;6.13;;;19.00;51.10;;;;;;5223095;28;20041;-78
2021/01/03 02:42:44;;;;;;;7.70;6.20;;;19.00;51.30;;;;;;5205442;28;20224;-78
2021/01/03 02:45:18;;;;;;;9.70;7.30;;;19.00;51.30;;;;;;5222427;28;20462;-78
2021/01/03 02:47:49;;;;;;;11.05;6.32;;;19.00;51.40;;;;;;5206440;28;20059;-78
2021/01/03 02:50:22;;;;;;;8.07;6.53;;;19.00;51.30;;;;;;5218838;28;20063;-78
2021/01/03 02:52:52;;;;;;;7.97;6.38;;;19.00;51.30;;;;;;5221786;28;20337;-78
2021/01/03 02:55:23;;;;;;;8.90;7.07;;;19.00;51.40;;;;;;5222892;28;20036;-78
2021/01/03 02:57:53;;;;;;;9.60;6.25;;;19.00;51.30;;;;;;5223571;28;20037;-79
2021/01/03 03:00:29;;;;;;;8.10;6.65;;;19.00;51.20;;;;;;5222343;28;20487;-78
2021/01/03 03:02:59;;;;;;;7.18;6.15;;;19.00;51.20;;;;;;5222591;28;20037;-77
2021/01/03 03:05:30;;;;;;;9.40;7.10;;;19.00;51.30;;;;;;5223148;28;20055;-79
2021/01/03 03:08:00;;;;;;;9.23;6.70;;;19.00;51.20;;;;;;5222568;28;20033;-79
2021/01/03 03:10:31;;;;;;;9.57;7.25;;;19.00;51.30;;;;;;5225096;28;20044;-79
2021/01/03 03:13:02;;;;;;;8.82;6.70;;;19.00;51.50;;;;;;5209514;28;20127;-78
2021/01/03 03:15:32;;;;;;;9.60;6.60;;;19.00;51.40;;;;;;5226619;28;20029;-77
2021/01/03 03:18:04;;;;;;;10.32;6.43;;;19.00;51.50;;;;;;5226646;28;20033;-78
2021/01/03 03:20:35;;;;;;;8.13;6.60;;;19.00;52.00;;;;;;5209816;28;20029;-78
2021/01/03 03:23:05;;;;;;;8.95;6.93;;;19.00;51.40;;;;;;5217399;28;20037;-80
2021/01/03 03:25:36;;;;;;;14.63;6.57;;;19.00;51.20;;;;;;5228820;28;20070;-79
2021/01/03 03:28:06;;;;;;;8.45;6.13;;;19.00;51.40;;;;;;5226056;28;20048;-78
2021/01/03 03:30:37;;;;;;;13.48;6.75;;;19.00;51.20;;;;;;5222116;28;20022;-77
2021/01/03 03:33:08;;;;;;;11.65;6.80;;;19.10;51.50;;;;;;5218734;28;20055;-78
2021/01/03 03:35:38;;;;;;;7.88;6.35;;;19.00;51.50;;;;;;5211942;28;20547;-78
2021/01/03 03:38:09;;;;;;;9.30;5.78;;;19.00;51.60;;;;;;5225306;28;20369;-79
2021/01/03 03:40:40;;;;;;;8.57;5.30;;;19.00;51.50;;;;;;5219849;28;20036;-78
2021/01/03 03:43:10;;;;;;;7.97;6.35;;;19.00;51.30;;;;;;5220160;28;20037;-78
2021/01/03 03:45:41;;;;;;;9.73;5.93;;;19.10;51.30;;;;;;5190772;28;20029;-77
2021/01/03 03:48:11;;;;;;;8.50;6.20;;;19.10;51.20;;;;;;5209295;28;20755;-80
2021/01/03 03:50:42;;;;;;;10.10;6.05;;;19.10;51.20;;;;;;5207826;28;20033;-78
2021/01/03 03:53:12;;;;;;;7.95;6.10;;;19.10;51.10;;;;;;5189769;28;20033;-79
2021/01/03 03:55:43;;;;;;;10.63;6.03;;;19.10;51.00;;;;;;5190524;28;20022;-79
2021/01/03 03:58:13;;;;;;;8.38;6.47;;;19.10;51.00;;;;;;5201040;28;20503;-77
2021/01/03 04:00:44;;;;;;;10.23;6.38;;;19.10;50.90;;;;;;5210870;28;20032;-78
2021/01/03 04:03:19;;;;;;;7.75;6.00;;;19.10;50.90;;;;;;5241611;28;20048;-78
2021/01/03 04:05:49;;;;;;;8.60;5.50;;;19.10;50.90;;;;;;5230660;28;20027;-77
2021/01/03 04:08:19;;;;;;;6.82;5.72;;;19.10;51.00;;;;;;5246305;28;20029;-79
2021/01/03 04:10:50;;;;;;;8.68;5.22;;;19.10;50.90;;;;;;5230515;28;20626;-78
2021/01/03 04:13:21;;;;;;;7.18;5.47;;;19.10;50.90;;;;;;5229103;28;20111;-76
2021/01/03 04:15:51;;;;;;;7.88;5.65;;;19.00;50.80;;;;;;5225070;28;20095;-77
2021/01/03 04:18:22;;;;;;;6.88;5.35;;;19.10;50.90;;;;;;5208254;28;21615;-79
2021/01/03 04:20:52;;;;;;;7.03;4.90;;;19.10;51.10;;;;;;5224474;28;20025;-76
2021/01/03 04:23:23;;;;;;;7.60;4.82;;;19.10;50.90;;;;;;5205200;28;20056;-78
2021/01/03 04:25:53;;;;;;;7.70;5.07;;;19.10;50.80;;;;;;5226633;28;20024;-76
2021/01/03 04:28:25;;;;;;;5.43;4.47;;;19.10;51.10;;;;;;5221461;28;20029;-78
2021/01/03 04:30:56;;;;;;;6.28;4.78;;;19.10;51.00;;;;;;5245037;28;20074;-77
2021/01/03 04:33:26;;;;;;;6.65;5.13;;;19.10;51.00;;;;;;5211474;28;20115;-77
2021/01/03 04:35:56;;;;;;;6.57;5.13;;;19.10;51.10;;;;;;5246149;28;20546;-78
2021/01/03 04:38:27;;;;;;;6.22;4.85;;;19.00;50.90;;;;;;5206428;28;20176;-79
2021/01/03 04:40:57;;;;;;;6.93;5.10;;;19.00;51.00;;;;;;5224574;28;20392;-78
2021/01/03 04:43:28;;;;;;;5.72;4.30;;;19.00;50.80;;;;;;5205018;28;20040;-77
2021/01/03 04:46:02;;;;;;;5.60;4.70;;;19.10;51.10;;;;;;5207825;28;20079;-78
2021/01/03 04:48:32;;;;;;;5.38;4.13;;;19.00;50.90;;;;;;5206301;28;20033;-78
2021/01/03 04:51:42;;;;;;;5.57;4.35;;;19.10;51.00;;;;;;5220703;28;20488;-78
2021/01/03 04:54:17;;;;;;;5.22;4.10;;;19.00;51.00;;;;;;5221174;28;20047;-78
2021/01/03 04:56:53;;;;;;;6.03;4.60;;;19.10;51.10;;;;;;5212568;28;20062;-77
2021/01/03 04:59:56;;;;;;;5.43;4.35;;;19.10;51.20;;;;;;5212464;28;20633;-78
2021/01/03 05:02:44;;;;;;;5.93;4.32;;;19.10;51.30;;;;;;5189895;28;20037;-78
2021/01/03 05:05:35;;;;;;;7.03;4.30;;;19.00;51.20;;;;;;5225109;28;20544;-78
2021/01/03 05:08:31;;;;;;;6.57;3.95;;;19.00;51.10;;;;;;5239125;28;20044;-78
2021/01/03 05:11:11;;;;;;;5.57;3.90;;;19.10;50.90;;;;;;5245179;28;20074;-77
2021/01/03 05:14:20;;;;;;;5.85;4.28;;;19.00;50.60;;;;;;5208339;28;20041;-78
2021/01/03 05:16:54;;;;;;;6.47;3.95;;;19.00;51.10;;;;;;5225877;28;20032;-78
2021/01/03 05:19:24;;;;;;;5.25;4.18;;;19.10;51.30;;;;;;5208370;28;20056;-78
2021/01/03 05:21:56;;;;;;;4.45;3.75;;;19.00;51.20;;;;;;5207230;28;20033;-76
2021/01/03 05:24:28;;;;;;;7.35;4.57;;;19.00;50.90;;;;;;5208142;28;20117;-78
2021/01/03 05:27:13;;;;;;;5.50;4.10;;;19.10;50.70;;;;;;5213437;28;20024;-78
2021/01/03 05:29:43;;;;;;;5.93;3.60;;;19.10;50.70;;;;;;5208306;28;20029;-78
2021/01/03 05:32:32;;;;;;;5.30;4.13;;;19.00;50.70;;;;;;5211852;28;20106;-77
2021/01/03 05:35:14;;;;;;;4.43;3.50;;;19.10;50.90;;;;;;5208695;28;20116;-78
2021/01/03 05:37:45;;;;;;;4.75;3.60;;;19.10;50.70;;;;;;5190676;28;20045;-77
2021/01/03 05:40:18;;;;;;;5.07;3.70;;;19.00;50.60;;;;;;5207519;28;20487;-78
2021/01/03 05:42:49;;;;;;;4.20;3.40;;;19.00;50.90;;;;;;5198004;28;20037;-78
2021/01/03 05:45:24;;;;;;;5.82;3.60;;;19.10;51.00;;;;;;5189992;28;20103;-78
2021/01/03 05:47:56;;;;;;;5.30;3.67;;;19.10;51.00;;;;;;5199821;28;20035;-79
2021/01/03 05:50:32;;;;;;;4.20;3.20;;;19.10;51.00;;;;;;5223999;28;20080;-78
2021/01/03 05:53:09;;;;;;;4.18;3.38;;;19.10;50.90;;;;;;5222792;28;20045;-77
2021/01/03 05:55:40;;;;;;;4.28;3.05;;;19.10;51.20;;;;;;5224011;28;20025;-76
2021/01/03 05:58:29;;;;;;;5.72;3.92;;;19.10;50.90;;;;;;5222546;28;20037;-78
2021/01/03 06:01:17;;;;;;;4.25;2.95;;;19.10;50.80;;;;;;5223686;28;20098;-76
2021/01/03 06:04:08;;;;;;;4.72;3.33;;;19.00;50.90;;;;;;5186234;28;20124;-79
2021/01/03 06:06:49;;;;;;;3.60;3.00;;;19.10;51.20;;;;;;5192939;28;20044;-78
2021/01/03 06:09:21;;;;;;;9.40;3.15;;;19.20;52.10;;;;;;5225799;28;20035;-75
2021/01/03 06:12:12;;;;;;;10.52;3.22;;;19.20;51.30;;;;;;5223171;28;20025;-77
2021/01/03 06:14:43;;;;;;;6.78;3.50;;;19.10;51.10;;;;;;5202886;28;20029;-78
2021/01/03 06:17:13;;;;;;;9.23;3.40;;;19.00;51.10;;;;;;5223400;28;20091;-78
2021/01/03 06:19:49;;;;;;;9.38;3.20;;;18.90;51.40;;;;;;5224702;28;20111;-77
2021/01/03 06:22:34;;;;;;;3.45;2.55;;;19.10;52.50;;;;;;5198982;28;20044;-79
2021/01/03 06:25:24;;;;;;;4.63;2.42;;;19.20;52.60;;;;;;5223406;28;20108;-78
2021/01/03 06:27:58;;;;;;;5.85;2.45;;;19.30;52.60;;;;;;5230079;28;20569;-76
2021/01/03 06:30:29;;;;;;;2.87;2.57;;;19.50;52.60;;;;;;5211116;28;20383;-77
2021/01/03 06:33:13;;;;;;;8.23;2.45;;;19.50;52.40;;;;;;5210344;28;20032;-78
2021/01/03 06:35:56;;;;;;;5.88;2.95;;;19.50;52.30;;;;;;5213208;28;20424;-78
2021/01/03 06:38:30;;;;;;;8.38;2.78;;;19.40;51.50;;;;;;5228597;28;20040;-78
2021/01/03 06:41:15;;;;;;;4.97;2.83;;;19.30;52.40;;;;;;5244652;28;20510;-78
2021/01/03 06:44:07;;;;;;;3.88;2.60;;;19.20;52.70;;;;;;5209378;28;20037;-77
2021/01/03 06:47:02;;;;;;;5.10;2.83;;;19.10;52.40;;;;;;5243466;28;20037;-78
2021/01/03 06:49:35;;;;;;;3.30;2.42;;;19.00;52.50;;;;;;5231625;28;20509;-77
2021/01/03 06:52:15;;;;;;;2.65;2.13;;;19.00;51.90;;;;;;5244166;28;20036;-79
2021/01/03 06:55:19;;;;;;;2.15;1.95;;;19.20;53.20;;;;;;5242346;28;20045;-79
2021/01/03 06:57:59;;;;;;;2.72;1.92;;;19.30;53.00;;;;;;5214472;28;20393;-78
2021/01/03 07:00:42;;;;;;;4.60;2.17;;;19.50;52.60;;;;;;5210354;28;20040;-78
2021/01/03 07:03:25;;;;;;;2.30;1.92;;;19.60;52.60;;;;;;5214848;28;20466;-79
2021/01/03 07:06:01;;;;;;;3.53;2.00;;;19.60;52.30;;;;;;5205469;28;20029;-78
2021/01/03 07:08:46;;;;;;;2.25;1.80;;;19.70;52.30;;;;;;5196884;28;20029;-77
2021/01/03 07:11:36;;;;;;;3.47;1.80;;;19.70;52.30;;;;;;5207574;28;20030;-77
2021/01/03 07:14:08;;;;;;;2.72;1.73;;;19.80;52.20;;;;;;5222646;28;20068;-78
2021/01/03 07:16:56;;;;;;;2.30;1.70;;;19.70;52.00;;;;;;5220640;28;20037;-77
2021/01/03 07:19:33;;;;;;;1.92;1.73;;;19.80;52.10;;;;;;5215228;28;20033;-78
2021/01/03 07:22:14;;;;;;;1.83;1.73;;;19.70;52.20;;;;;;5239699;28;20033;-76
2021/01/03 07:24:50;;;;;;;2.70;1.70;;;19.80;52.00;;;;;;5210264;28;20078;-78
2021/01/03 07:27:39;;;;;;;2.95;2.25;;;19.80;52.00;;;;;;5225248;28;20057;-77
2021/01/03 07:30:10;;;;;;;1.90;1.60;;;19.80;51.80;;;;;;5226003;28;20170;-78
2021/01/03 07:32:52;;;;;;;1.70;1.60;;;19.80;51.80;;;;;;5227527;28;20124;-78
2021/01/03 07:35:23;;;;;;;2.08;1.80;;;19.80;51.80;;;;;;5190129;28;20419;-79
2021/01/03 07:38:14;;;;;;;1.60;1.50;;;19.80;51.80;;;;;;5214246;28;20029;-78
2021/01/03 07:40:57;;;;;;;2.67;1.70;;;19.80;51.60;;;;;;5206942;28;20033;-79
2021/01/03 07:43:27;;;;;;;2.67;1.63;;;19.90;51.70;;;;;;5202470;28;20038;-79
2021/01/03 07:45:58;;;;;;;2.25;1.70;;;19.90;51.70;;;;;;5216174;28;20168;-79
2021/01/03 07:48:38;;;;;;;2.25;1.60;;;19.90;51.70;;;;;;5223692;28;20388;-78
2021/01/03 07:51:10;;;;;;;2.00;1.80;;;19.90;51.70;;;;;;5208976;28;20031;-79
2021/01/03 07:53:41;;;;;;;1.85;1.50;;;19.90;51.60;;;;;;5209478;28;20044;-78
2021/01/03 07:56:20;;;;;;;1.67;1.52;;;19.90;51.50;;;;;;5208819;28;20224;-77
2021/01/03 07:58:55;;;;;;;2.25;1.80;;;19.90;51.60;;;;;;5210029;28;20120;-79
2021/01/03 08:01:32;;;;;;;1.80;1.60;;;19.90;51.60;;;;;;5216468;28;20037;-76
2021/01/03 08:04:10;;;;;;;1.75;1.42;;;19.90;52.20;;;;;;5225932;28;20154;-77
2021/01/03 08:06:40;;;;;;;2.53;1.50;;;19.90;51.50;;;;;;5227120;28;20060;-79
2021/01/03 08:09:11;;;;;;;2.58;1.50;;;20.00;51.50;;;;;;5213889;28;20045;-77
2021/01/03 08:11:41;;;;;;;1.40;1.30;;;20.00;51.40;;;;;;5225706;28;20148;-76
2021/01/03 08:14:22;;;;;;;1.60;1.50;;;20.00;51.50;;;;;;5208987;28;20044;-77
2021/01/03 08:16:59;;;;;;;1.58;1.40;;;20.00;51.40;;;;;;5223487;28;20098;-77
2021/01/03 08:19:29;;;;;;;1.63;1.52;;;20.00;51.30;;;;;;5230065;28;20108;-76
2021/01/03 08:22:01;;;;;;;1.55;1.45;;;20.00;51.30;;;;;;5228946;28;20115;-77
2021/01/03 08:24:31;;;;;;;1.52;1.38;;;20.00;51.70;;;;;;5212782;28;20060;-76
2021/01/03 08:27:08;;;;;;;1.60;1.48;;;20.00;51.40;;;;;;5239595;28;20057;-75
2021/01/03 08:29:43;;;;;;;1.95;1.50;;;20.00;51.50;;;;;;5209955;28;20085;-77
2021/01/03 08:32:16;;;;;;;1.50;1.40;;;20.00;51.40;;;;;;5225815;28;20033;-77
2021/01/03 08:34:47;;;;;;;2.20;1.33;;;20.00;51.70;;;;;;5224023;28;20048;-76
2021/01/03 08:37:23;;;;;;;1.50;1.40;;;20.00;51.40;;;;;;5244075;28;20036;-74
2021/01/03 08:39:54;;;;;;;3.72;1.38;;;20.10;51.40;;;;;;5229750;28;20032;-76
2021/01/03 08:42:28;;;;;;;6.78;1.30;;;20.10;51.50;;;;;;5211593;28;20063;-77
2021/01/03 08:44:58;;;;;;;6.00;1.48;;;20.20;51.70;;;;;;5213149;28;20028;-76
2021/01/03 08:47:37;;;;;;;1.35;1.23;;;20.10;51.50;;;;;;5211520;28;20552;-76
2021/01/03 08:50:18;;;;;;;3.63;1.70;;;20.00;51.50;;;;;;5229606;28;20487;-77
2021/01/03 08:53:06;;;;;;;3.47;1.65;;;19.90;51.30;;;;;;5223707;28;20538;-78
2021/01/03 08:55:38;;;;;;;5.97;2.10;;;19.80;50.70;;;;;;5225293;28;20024;-78
2021/01/03 08:58:16;;;;;;;3.47;1.50;;;19.80;53.30;;;;;;5203872;28;20044;-78
2021/01/03 09:00:57;;;;;;;4.60;1.63;;;19.80;52.30;;;;;;5207193;28;20045;-79
2021/01/03 09:03:28;;;;;;;2.30;1.45;;;19.80;52.50;;;;;;5222068;28;20413;-78
2021/01/03 09:05:58;;;;;;;3.25;1.83;;;19.90;52.40;;;;;;5191282;28;20025;-79
2021/01/03 09:08:33;;;;;;;3.95;1.60;;;19.90;52.20;;;;;;5207178;28;20056;-78
2021/01/03 09:11:30;;;;;;;3.45;1.20;;;19.90;52.10;;;;;;5191420;28;20028;-77
2021/01/03 09:14:38;;;;;;;1.63;1.30;;;19.90;51.80;;;;;;5220519;28;20061;-78
2021/01/03 09:17:23;;;;;;;2.15;1.10;;;19.90;51.70;;;;;;5213602;28;20039;-77
2021/01/03 09:20:12;;;;;;;3.42;1.38;;;20.00;51.50;;;;;;5188811;28;20492;-77
2021/01/03 09:22:44;;;;;;;2.90;1.30;;;20.00;51.40;;;;;;5225102;28;20067;-78
2021/01/03 09:25:15;;;;;;;3.63;1.30;;;20.00;51.20;;;;;;5224876;28;20507;-78
2021/01/03 09:27:50;;;;;;;2.10;1.30;;;20.00;51.20;;;;;;5224007;28;20029;-78
2021/01/03 09:30:28;;;;;;;;;;;20.00;51.00;;;;;;5225619;28;20379;-78
2021/01/03 09:33:22;;;;;;;3.05;1.42;;;20.00;51.00;;;;;;5207750;28;19919;-78
2021/01/03 09:36:19;;;;;;;3.85;1.58;;;19.90;51.10;;;;;;5207822;28;20430;-78
2021/01/03 09:39:02;;;;;;;2.05;1.40;;;19.80;50.10;;;;;;5203932;28;20040;-77
2021/01/03 09:41:52;;;;;;;1.75;1.33;;;19.70;50.90;;;;;;5217595;28;20150;-76
2021/01/03 09:44:35;;;;;;;4.03;1.40;;;19.70;51.00;;;;;;5243508;28;20033;-77
2021/01/03 09:47:08;;;;;;;3.28;1.10;;;19.70;50.70;;;;;;5230152;28;20029;-77
2021/01/03 09:49:40;;;;;;;1.48;1.08;;;19.70;50.30;;;;;;5243571;28;20429;-78
2021/01/03 09:52:33;;;;;;;2.10;1.05;;;19.60;50.50;;;;;;5227648;28;20082;-78
2021/01/03 09:55:15;;;;;;;2.80;1.10;;;19.60;50.40;;;;;;5234656;28;20029;-77
2021/01/03 09:57:58;;;;;;;1.95;1.10;;;19.60;50.00;;;;;;5235698;28;20032;-77
2021/01/03 10:00:43;;;;;;;2.78;1.20;;;19.60;50.10;;;;;;5213474;28;20036;-77
2021/01/03 10:03:27;;;;;;;1.30;1.05;;;19.60;49.50;;;;;;5245419;28;20041;-76
2021/01/03 10:05:57;;;;;;;1.52;1.10;;;19.60;50.10;;;;;;5208970;28;20318;-78
2021/01/03 10:08:28;;;;;;;3.28;1.50;;;19.60;50.00;;;;;;5229883;28;20040;-78
2021/01/03 10:11:00;;;;;;;3.67;1.05;;;19.50;49.50;;;;;;5231495;28;20027;-79
2021/01/03 10:13:31;;;;;;;1.70;1.20;;;19.50;49.70;;;;;;5223447;28;20502;-79
2021/01/03 10:16:19;;;;;;;1.00;0.88;;;19.50;49.40;;;;;;5208549;28;20065;-78
2021/01/03 10:18:50;;;;;;;4.15;1.42;;;19.50;49.40;;;;;;5223055;28;20061;-78
2021/01/03 10:21:33;;;;;;;2.38;1.20;;;19.30;49.30;;;;;;5209741;28;20060;-81
2021/01/03 10:24:16;;;;;;;3.80;1.42;;;19.30;48.90;;;;;;5231270;28;20028;-78
2021/01/03 10:26:49;;;;;;;2.30;1.30;;;19.50;50.80;;;;;;5223704;28;20037;-80
2021/01/03 10:29:19;;;;;;;2.60;1.38;;;19.50;51.00;;;;;;5189671;28;20032;-80
2021/01/03 10:31:51;;;;;;;1.65;1.45;;;19.50;50.70;;;;;;5214790;28;20037;-79
2021/01/03 10:34:22;;;;;;;3.15;1.40;;;19.60;50.60;;;;;;5208216;28;20399;-79
2021/01/03 10:36:54;;;;;;;2.47;1.13;;;19.60;50.30;;;;;;5217286;28;20024;-79
2021/01/03 10:39:24;;;;;;;2.65;1.45;;;19.50;50.00;;;;;;5214893;28;20024;-77
2021/01/03 10:41:55;;;;;;;1.50;1.00;;;19.60;50.20;;;;;;5205673;28;20083;-78
2021/01/03 10:44:26;;;;;;;1.73;1.10;;;19.60;50.10;;;;;;5207358;28;20036;-78
2021/01/03 10:46:56;;;;;;;1.92;1.25;;;19.70;50.00;;;;;;5217455;28;20037;-78
2021/01/03 10:49:27;;;;;;;3.45;1.20;;;19.60;49.80;;;;;;5224154;28;20024;-78
2021/01/03 10:51:57;;;;;;;4.53;1.98;;;19.70;49.80;;;;;;5227035;28;20042;-77
2021/01/03 10:54:28;;;;;;;7.15;2.10;;;19.70;51.20;;;;;;5211199;28;20038;-77
2021/01/03 10:56:58;;;;;;;6.97;2.05;;;19.80;53.10;;;;;;5233443;28;20070;-76
2021/01/03 10:59:29;;;;;;;6.57;1.77;;;19.90;53.30;;;;;;5222937;28;20130;-77
2021/01/03 11:01:59;;;;;;;5.10;1.67;;;20.00;53.20;;;;;;5237815;28;20035;-76
2021/01/03 11:04:30;;;;;;;33.17;6.90;;;19.90;53.40;;;;;;5210471;28;20024;-77
2021/01/03 11:07:01;;;;;;;31.70;7.78;;;20.00;53.60;;;;;;5223533;28;20029;-77
2021/01/03 11:09:32;;;;;;;23.77;5.93;;;20.00;54.30;;;;;;5227383;28;20024;-76
2021/01/03 11:12:08;;;;;;;25.85;5.80;;;20.00;55.10;;;;;;5225945;28;20040;-76
2021/01/03 11:14:38;;;;;;;;;;;20.10;53.70;;;;;;5211273;28;20029;-76
2021/01/03 11:17:10;;;;;;;21.17;4.97;;;20.10;54.00;;;;;;5225027;28;19912;-76
2021/01/03 11:19:40;;;;;;;17.52;4.68;;;20.10;53.80;;;;;;5227011;28;20017;-75
2021/01/03 11:22:14;;;;;;;15.55;4.70;;;20.10;53.50;;;;;;5225982;28;20033;-76
2021/01/03 11:24:45;;;;;;;18.67;4.15;;;20.10;53.20;;;;;;5239336;28;20033;-75
2021/01/03 11:27:17;;;;;;;14.18;3.75;;;20.10;53.00;;;;;;5209274;28;20048;-75
2021/01/03 11:29:49;;;;;;;14.85;4.00;;;20.20;52.90;;;;;;5219550;28;20029;-77
2021/01/03 11:32:23;;;;;;;13.65;3.65;;;20.20;52.90;;;;;;5244579;28;20048;-77
2021/01/03 11:34:53;;;;;;;12.27;3.83;;;20.30;52.70;;;;;;5212287;28;20085;-75
2021/01/03 11:37:26;;;;;;;14.48;3.08;;;20.30;52.70;;;;;;5212828;28;20119;-77
2021/01/03 11:39:57;;;;;;;10.32;3.35;;;20.30;52.20;;;;;;5225110;28;20032;-76
2021/01/03 11:42:31;;;;;;;12.30;3.00;;;20.30;51.70;;;;;;5229327;28;20044;-78
2021/01/03 11:45:04;;;;;;;13.80;3.23;;;20.30;51.80;;;;;;5247173;28;20020;-77
2021/01/03 11:47:35;;;;;;;6.45;2.50;;;20.30;51.70;;;;;;5229326;28;20434;-78
2021/01/03 11:50:07;;;;;;;10.70;2.60;;;20.20;51.40;;;;;;5230648;28;20030;-77
2021/01/03 11:52:38;;;;;;;11.73;3.05;;;20.20;51.30;;;;;;5241254;28;20403;-76
2021/01/03 11:55:10;;;;;;;7.55;2.80;;;20.20;51.20;;;;;;5226269;28;20025;-76
2021/01/03 11:57:41;;;;;;;9.27;2.67;;;20.20;50.80;;;;;;5228410;28;20119;-74
2021/01/03 12:00:12;;;;;;;7.38;2.53;;;20.20;50.80;;;;;;5211657;28;20158;-75
2021/01/03 12:02:43;;;;;;;5.80;2.20;;;20.30;50.70;;;;;;5207961;28;20029;-76
2021/01/03 12:05:16;;;;;;;7.07;2.38;;;20.30;50.60;;;;;;5225868;28;20028;-76
2021/01/03 12:07:46;;;;;;;5.03;2.00;;;20.30;50.60;;;;;;5225062;28;20422;-76
2021/01/03 12:10:17;;;;;;;7.18;2.08;;;20.30;50.50;;;;;;5192993;28;20029;-76
2021/01/03 12:12:47;;;;;;;5.63;2.10;;;20.30;50.40;;;;;;5203727;28;20029;-76
2021/01/03 12:15:18;;;;;;;7.68;2.55;;;20.30;50.30;;;;;;5244975;28;20406;-74
2021/01/03 12:17:48;;;;;;;3.42;1.80;;;20.30;50.40;;;;;;5234137;28;20029;-76
2021/01/03 12:20:19;;;;;;;4.60;1.88;;;20.30;50.40;;;;;;5208833;28;20029;-77
2021/01/03 12:22:50;;;;;;;5.07;1.65;;;20.30;50.40;;;;;;5217136;28;20403;-75
2021/01/03 12:25:21;;;;;;;6.53;2.13;;;20.20;50.00;;;;;;5208715;28;20056;-76
2021/01/03 12:27:52;;;;;;;4.22;1.58;;;20.10;49.80;;;;;;5207578;28;20082;-75
2021/01/03 12:30:23;;;;;;;6.38;2.03;;;20.00;49.40;;;;;;5222408;28;20410;-76
2021/01/03 12:32:54;;;;;;;5.82;1.80;;;19.90;49.80;;;;;;5204573;28;20461;-75
2021/01/03 12:35:24;;;;;;;3.28;1.75;;;19.90;49.70;;;;;;5188573;28;20038;-75
2021/01/03 12:37:55;;;;;;;3.17;1.60;;;19.90;49.80;;;;;;5218052;28;20083;-75
2021/01/03 12:40:25;;;;;;;3.45;1.52;;;19.80;49.60;;;;;;5225920;28;20036;-76
2021/01/03 12:42:56;;;;;;;2.33;1.27;;;19.80;49.60;;;;;;5210447;28;20053;-75
2021/01/03 12:45:26;;;;;;;2.42;1.15;;;19.80;48.80;;;;;;5187883;28;20064;-78
2021/01/03 12:47:57;;;;;;;2.50;1.50;;;19.80;49.20;;;;;;5204444;28;20069;-78
2021/01/03 12:50:27;;;;;;;2.33;1.40;;;19.70;49.10;;;;;;5188285;28;20395;-78
2021/01/03 12:52:58;;;;;;;1.88;1.23;;;19.60;49.00;;;;;;5171083;28;20079;-77
2021/01/03 12:55:28;;;;;;;3.47;1.42;;;19.80;49.00;;;;;;5171869;28;20018;-76
2021/01/03 12:57:59;;;;;;;3.65;1.25;;;19.80;48.20;;;;;;5188853;28;20029;-78
2021/01/03 13:00:29;;;;;;;1.85;1.13;;;19.60;48.50;;;;;;5204142;28;20057;-77
2021/01/03 13:03:00;;;;;;;1.77;1.13;;;19.60;49.00;;;;;;5210313;28;20528;-78
2021/01/03 13:05:30;;;;;;;3.10;1.30;;;19.60;47.10;;;;;;5204590;28;20073;-78
2021/01/03 13:08:01;;;;;;;1.95;1.02;;;19.70;48.50;;;;;;5220495;28;20030;-78
2021/01/03 13:10:31;;;;;;;2.17;1.10;;;19.70;48.10;;;;;;5221300;28;20502;-77
2021/01/03 13:13:02;;;;;;;2.13;1.17;;;19.60;48.30;;;;;;5220001;28;20041;-77
2021/01/03 13:15:32;;;;;;;2.92;1.00;;;19.60;47.20;;;;;;5224221;28;20499;-76
2021/01/03 13:18:03;;;;;;;2.63;1.30;;;19.60;48.30;;;;;;5209952;28;20171;-78
2021/01/03 13:20:33;;;;;;;2.28;1.25;;;19.50;47.50;;;;;;5187537;28;20110;-78
2021/01/03 13:23:04;;;;;;;2.15;1.15;;;19.50;47.60;;;;;;5203202;28;20048;-78
2021/01/03 13:25:34;;;;;;;2.45;0.90;;;19.40;47.80;;;;;;5205488;28;20036;-78